createdAt,value
2018-07-17T00:00:33.096Z,19.88
2018-07-17T00:03:03.830Z,20.08
2018-07-17T00:05:33.277Z,20.23
2018-07-17T00:08:03.252Z,20.28
2018-07-17T00:10:33.038Z,20.31
2018-07-17T00:13:03.515Z,20.23
2018-07-17T00:15:33.441Z,20.12
2018-07-17T00:18:03.494Z,19.95
2018-07-17T00:20:33.301Z,19.92
2018-07-17T00:23:03.271Z,19.84
2018-07-17T00:25:33.137Z,19.81
2018-07-17T00:28:02.695Z,19.78
2018-07-17T00:30:32.806Z,19.70
2018-07-17T00:33:02.672Z,19.77
2018-07-17T00:35:32.483Z,19.99
2018-07-17T00:38:02.259Z,20.06
2018-07-17T00:40:32.722Z,20.10
2018-07-17T00:43:02.675Z,20.08
2018-07-17T00:45:32.586Z,19.99
2018-07-17T00:48:03.454Z,19.80
2018-07-17T00:50:33.107Z,19.57
2018-07-17T00:53:02.812Z,19.48
2018-07-17T00:55:32.685Z,19.31
2018-07-17T00:58:02.377Z,19.14
2018-07-17T01:00:37.224Z,18.94
2018-07-17T01:03:12.187Z,18.90
2018-07-17T01:05:47.341Z,19.00
2018-07-17T01:08:21.765Z,19.14
2018-07-17T01:10:56.473Z,19.17
2018-07-17T01:13:29.383Z,18.98
2018-07-17T01:15:59.070Z,18.81
2018-07-17T01:18:28.361Z,18.89
2018-07-17T01:20:57.689Z,19.04
2018-07-17T01:23:27.545Z,19.15
2018-07-17T01:25:56.784Z,18.97
2018-07-17T01:28:26.007Z,18.78
2018-07-17T01:30:55.298Z,18.70
2018-07-17T01:33:24.628Z,18.72
2018-07-17T01:35:53.893Z,18.81
2018-07-17T01:38:24.325Z,18.96
2018-07-17T01:40:53.673Z,18.83
2018-07-17T01:43:22.903Z,18.97
2018-07-17T01:45:52.512Z,18.85
2018-07-17T01:48:21.747Z,18.52
2018-07-17T01:50:50.980Z,18.39
2018-07-17T01:53:20.233Z,18.35
2018-07-17T01:55:49.515Z,18.42
2018-07-17T01:58:18.833Z,18.67
2018-07-17T02:00:48.673Z,18.62
2018-07-17T02:03:17.926Z,18.50
2018-07-17T02:05:47.228Z,18.37
2018-07-17T02:08:17.458Z,18.14
2018-07-17T02:10:46.669Z,18.14
2018-07-17T02:13:16.017Z,18.32
2018-07-17T02:15:45.444Z,18.43
2018-07-17T02:18:15.235Z,18.50
2018-07-17T02:20:44.562Z,18.56
2018-07-17T02:23:14.129Z,18.57
2018-07-17T02:25:43.493Z,18.48
2018-07-17T02:28:12.993Z,18.41
2018-07-17T02:30:42.297Z,18.28
2018-07-17T02:33:11.655Z,18.16
2018-07-17T02:35:40.995Z,17.90
2018-07-17T02:38:11.074Z,17.65
2018-07-17T02:40:40.405Z,17.50
2018-07-17T02:43:10.965Z,17.47
2018-07-17T02:45:41.309Z,17.44
2018-07-17T02:48:10.938Z,17.47
2018-07-17T02:50:40.655Z,17.51
2018-07-17T02:53:10.309Z,17.53
2018-07-17T02:55:40.081Z,17.62
2018-07-17T02:58:09.989Z,17.77
2018-07-17T03:00:40.642Z,17.88
2018-07-17T03:03:10.090Z,17.84
2018-07-17T03:05:40.033Z,17.85
2018-07-17T03:08:10.105Z,17.89
2018-07-17T03:10:39.798Z,18.10
2018-07-17T03:13:10.502Z,18.26
2018-07-17T03:15:40.545Z,18.26
2018-07-17T03:18:10.126Z,18.23
2018-07-17T03:20:39.763Z,18.25
2018-07-17T03:23:09.567Z,18.07
2018-07-17T03:25:39.257Z,17.99
2018-07-17T03:28:08.812Z,17.81
2018-07-17T03:30:38.328Z,17.69
2018-07-17T03:33:08.494Z,17.62
2018-07-17T03:35:38.116Z,17.69
2018-07-17T03:38:07.743Z,17.58
2018-07-17T03:40:37.401Z,17.55
2018-07-17T03:43:06.913Z,17.49
2018-07-17T03:45:37.256Z,17.42
2018-07-17T03:48:06.823Z,17.41
2018-07-17T03:50:36.545Z,17.35
2018-07-17T03:53:06.261Z,17.36
2018-07-17T03:55:36.489Z,17.44
2018-07-17T03:58:07.942Z,17.60
2018-07-17T04:00:37.343Z,17.70
2018-07-17T04:03:07.095Z,17.72
2018-07-17T04:05:37.002Z,17.70
2018-07-17T04:08:06.712Z,17.82
2018-07-17T04:10:36.199Z,18.06
2018-07-17T04:13:06.855Z,18.15
2018-07-17T04:15:36.683Z,18.16
2018-07-17T04:18:06.764Z,18.27
2018-07-17T04:20:36.461Z,18.31
2018-07-17T04:23:06.611Z,18.38
2018-07-17T04:25:36.628Z,18.30
2018-07-17T04:28:06.713Z,18.12
2018-07-17T04:30:36.969Z,18.22
2018-07-17T04:33:06.855Z,18.35
2018-07-17T04:35:36.767Z,18.42
2018-07-17T04:38:07.126Z,18.45
2018-07-17T04:40:37.244Z,18.47
2018-07-17T04:43:06.744Z,18.45
2018-07-17T04:45:37.120Z,18.25
2018-07-17T04:48:06.782Z,18.18
2018-07-17T04:50:36.216Z,18.20
2018-07-17T04:53:05.858Z,18.26
2018-07-17T04:55:36.399Z,18.29
2018-07-17T04:58:06.445Z,18.45
2018-07-17T05:00:36.276Z,18.56
2018-07-17T05:03:07.478Z,18.62
2018-07-17T05:05:37.219Z,18.77
2018-07-17T05:08:07.144Z,18.87
2018-07-17T05:10:37.036Z,19.03
2018-07-17T05:13:06.717Z,19.23
2018-07-17T05:15:36.569Z,19.38
2018-07-17T05:18:06.720Z,19.51
2018-07-17T05:20:36.399Z,19.68
2018-07-17T05:23:06.300Z,19.82
2018-07-17T05:25:37.902Z,19.77
2018-07-17T05:28:07.548Z,19.72
2018-07-17T05:30:37.560Z,19.77
2018-07-17T05:33:07.989Z,19.83
2018-07-17T05:35:37.778Z,20.09
2018-07-17T05:38:07.751Z,20.40
2018-07-17T05:40:37.975Z,20.52
2018-07-17T05:43:07.857Z,20.58
2018-07-17T05:45:37.574Z,20.63
2018-07-17T05:48:07.302Z,20.60
2018-07-17T05:50:37.123Z,20.70
2018-07-17T05:53:07.304Z,20.98
2018-07-17T05:55:39.062Z,21.27
2018-07-17T05:58:09.179Z,21.33
2018-07-17T06:00:39.450Z,21.45
2018-07-17T06:03:10.993Z,21.30
2018-07-17T06:05:40.646Z,21.43
2018-07-17T06:08:10.538Z,21.48
2018-07-17T06:10:40.146Z,21.57
2018-07-17T06:13:10.014Z,21.76
2018-07-17T06:15:39.723Z,22.05
2018-07-17T06:18:10.130Z,22.26
2018-07-17T06:20:39.880Z,22.41
2018-07-17T06:23:09.632Z,22.62
2018-07-17T06:25:39.573Z,22.70
2018-07-17T06:28:09.425Z,22.82
2018-07-17T06:30:39.221Z,22.98
2018-07-17T06:33:09.433Z,22.91
2018-07-17T06:35:39.128Z,23.07
2018-07-17T06:38:08.815Z,23.33
2018-07-17T06:40:38.447Z,23.39
2018-07-17T06:43:08.215Z,23.19
2018-07-17T06:45:37.975Z,23.41
2018-07-17T06:48:07.739Z,23.66
2018-07-17T06:50:37.521Z,23.61
2018-07-17T06:53:07.825Z,23.61
2018-07-17T06:55:38.636Z,23.68
2018-07-17T06:58:09.079Z,23.89
2018-07-17T07:00:38.746Z,24.01
2018-07-17T07:03:08.440Z,24.09
2018-07-17T07:05:38.089Z,24.43
2018-07-17T07:08:07.638Z,24.72
2018-07-17T07:10:37.334Z,24.82
2018-07-17T07:13:07.452Z,24.68
2018-07-17T07:15:37.753Z,24.55
2018-07-17T07:18:08.527Z,24.40
2018-07-17T07:20:38.275Z,24.60
2018-07-17T07:23:08.397Z,24.72
2018-07-17T07:25:39.731Z,24.99
2018-07-17T07:28:09.323Z,25.14
2018-07-17T07:30:38.969Z,24.99
2018-07-17T07:33:08.861Z,24.92
2018-07-17T07:35:38.544Z,25.17
2018-07-17T07:38:08.440Z,25.21
2018-07-17T07:40:38.357Z,25.42
2018-07-17T07:43:08.062Z,25.49
2018-07-17T07:45:37.700Z,25.38
2018-07-17T07:48:07.326Z,25.43
2018-07-17T07:50:36.900Z,25.78
2018-07-17T07:53:06.536Z,25.98
2018-07-17T07:55:37.281Z,26.11
2018-07-17T07:58:06.876Z,26.24
2018-07-17T08:00:36.858Z,26.25
2018-07-17T08:03:06.977Z,26.28
2018-07-17T08:05:37.644Z,26.21
2018-07-17T08:08:08.076Z,26.24
2018-07-17T08:10:37.612Z,26.41
2018-07-17T08:13:07.597Z,26.50
2018-07-17T08:15:37.433Z,26.42
2018-07-17T08:18:07.664Z,26.48
2018-07-17T08:20:38.459Z,26.34
2018-07-17T08:23:08.289Z,26.56
2018-07-17T08:25:38.197Z,26.26
2018-07-17T08:28:08.639Z,26.24
2018-07-17T08:30:38.409Z,26.51
2018-07-17T08:33:11.684Z,26.65
2018-07-17T08:35:41.005Z,26.84
2018-07-17T08:38:10.544Z,27.14
2018-07-17T08:40:39.979Z,26.93
2018-07-17T08:43:09.469Z,27.14
2018-07-17T08:45:39.087Z,27.25
2018-07-17T08:48:11.879Z,27.34
2018-07-17T08:50:41.407Z,26.97
2018-07-17T08:53:10.999Z,26.96
2018-07-17T08:55:41.487Z,26.93
2018-07-17T08:58:10.969Z,27.01
2018-07-17T09:00:40.684Z,26.65
2018-07-17T09:03:10.777Z,26.76
2018-07-17T09:05:40.788Z,26.94
2018-07-17T09:08:10.473Z,26.84
2018-07-17T09:10:40.412Z,26.75
2018-07-17T09:13:10.988Z,27.10
2018-07-17T09:15:40.554Z,27.42
2018-07-17T09:18:10.209Z,27.35
2018-07-17T09:20:39.934Z,27.16
2018-07-17T09:23:09.568Z,27.36
2018-07-17T09:25:39.413Z,27.37
2018-07-17T09:28:09.364Z,27.38
2018-07-17T09:30:44.546Z,27.54
2018-07-17T09:33:13.858Z,27.56
2018-07-17T09:35:43.240Z,27.85
2018-07-17T09:38:13.302Z,27.55
2018-07-17T09:40:42.920Z,27.84
2018-07-17T09:43:12.753Z,28.02
2018-07-17T09:45:43.018Z,28.40
2018-07-17T09:48:13.330Z,28.37
2018-07-17T09:50:44.803Z,29.45
2018-07-17T09:53:15.144Z,30.69
2018-07-17T09:55:45.167Z,30.96
2018-07-17T09:58:15.653Z,31.42
2018-07-17T10:00:50.598Z,30.42
2018-07-17T10:03:19.926Z,30.96
2018-07-17T10:05:49.715Z,31.49
2018-07-17T10:08:19.272Z,30.67
2018-07-17T10:10:48.640Z,32.28
2018-07-17T10:13:17.955Z,32.55
2018-07-17T10:15:47.578Z,32.12
2018-07-17T10:18:17.063Z,31.31
2018-07-17T10:20:46.612Z,30.43
2018-07-17T10:23:16.935Z,31.92
2018-07-17T10:25:46.440Z,31.96
2018-07-17T10:28:15.929Z,32.86
2018-07-17T10:30:45.714Z,33.26
2018-07-17T10:33:15.330Z,33.64
2018-07-17T10:35:44.809Z,33.19
2018-07-17T10:38:15.742Z,33.72
2018-07-17T10:40:45.275Z,33.92
2018-07-17T10:43:14.750Z,33.91
2018-07-17T10:45:44.285Z,34.61
2018-07-17T10:48:14.162Z,33.88
2018-07-17T10:50:45.326Z,32.79
2018-07-17T10:53:15.083Z,30.86
2018-07-17T10:55:45.815Z,30.49
2018-07-17T10:58:16.444Z,31.54
2018-07-17T11:00:46.417Z,32.25
2018-07-17T11:03:15.911Z,32.94
2018-07-17T11:05:45.920Z,34.24
2018-07-17T11:08:17.754Z,33.96
2018-07-17T11:10:47.321Z,33.62
2018-07-17T11:13:16.896Z,33.71
2018-07-17T11:15:46.159Z,34.55
2018-07-17T11:18:15.817Z,34.00
2018-07-17T11:20:45.299Z,33.13
2018-07-17T11:23:16.093Z,33.73
2018-07-17T11:25:45.643Z,33.67
2018-07-17T11:28:15.047Z,33.96
2018-07-17T11:30:45.622Z,34.18
2018-07-17T11:33:15.301Z,34.53
2018-07-17T11:35:44.706Z,35.01
2018-07-17T11:38:14.145Z,34.32
2018-07-17T11:40:43.698Z,35.10
2018-07-17T11:43:13.207Z,32.91
2018-07-17T11:45:43.624Z,33.36
2018-07-17T11:48:13.023Z,33.58
2018-07-17T11:50:42.698Z,32.02
2018-07-17T11:53:12.377Z,31.38
2018-07-17T11:55:42.845Z,32.51
2018-07-17T11:58:12.405Z,33.32
2018-07-17T12:00:42.525Z,33.82
2018-07-17T12:03:12.502Z,32.54
2018-07-17T12:05:42.071Z,31.80
2018-07-17T12:08:11.461Z,32.51
2018-07-17T12:10:41.401Z,30.68
2018-07-17T12:13:11.162Z,30.71
2018-07-17T12:15:41.518Z,32.30
2018-07-17T12:18:12.205Z,33.11
2018-07-17T12:20:41.660Z,33.48
2018-07-17T12:23:11.464Z,31.95
2018-07-17T12:25:41.737Z,32.69
2018-07-17T12:28:11.474Z,32.09
2018-07-17T12:30:41.885Z,32.95
2018-07-17T12:33:12.226Z,33.35
2018-07-17T12:35:42.761Z,33.89
2018-07-17T12:38:12.426Z,33.84
2018-07-17T12:40:42.792Z,32.31
2018-07-17T12:43:12.392Z,33.63
2018-07-17T12:45:42.030Z,33.16
2018-07-17T12:48:13.965Z,33.73
2018-07-17T12:50:44.451Z,34.14
2018-07-17T12:53:15.019Z,34.69
2018-07-17T12:55:50.926Z,34.59
2018-07-17T12:58:20.553Z,34.30
2018-07-17T13:00:49.901Z,32.09
2018-07-17T13:03:19.163Z,32.24
2018-07-17T13:05:49.529Z,33.61
2018-07-17T13:08:18.832Z,33.94
2018-07-17T13:10:48.109Z,32.92
2018-07-17T13:13:17.601Z,32.17
2018-07-17T13:15:46.929Z,33.21
2018-07-17T13:18:17.181Z,32.71
2018-07-17T13:20:47.146Z,32.66
2018-07-17T13:23:16.862Z,34.16
2018-07-17T13:25:46.381Z,34.60
2018-07-17T13:28:16.908Z,34.96
2018-07-17T13:30:55.194Z,35.62
2018-07-17T13:33:24.501Z,34.76
2018-07-17T13:35:54.016Z,33.95
2018-07-17T13:38:23.284Z,33.14
2018-07-17T13:40:52.707Z,32.86
2018-07-17T13:43:22.115Z,32.67
2018-07-17T13:45:51.469Z,32.88
2018-07-17T13:48:20.714Z,32.50
2018-07-17T13:50:50.165Z,32.95
2018-07-17T13:53:19.498Z,34.27
2018-07-17T13:55:49.626Z,34.86
2018-07-17T13:58:18.867Z,34.34
2018-07-17T14:00:48.102Z,34.51
2018-07-17T14:03:19.435Z,33.99
2018-07-17T14:05:48.772Z,34.87
2018-07-17T14:08:18.069Z,35.42
2018-07-17T14:10:48.799Z,35.69
2018-07-17T14:13:19.248Z,35.21
2018-07-17T14:15:48.664Z,34.50
2018-07-17T14:18:18.122Z,33.82
2018-07-17T14:20:47.549Z,34.79
2018-07-17T14:23:20.879Z,34.78
2018-07-17T14:25:50.225Z,35.44
2018-07-17T14:28:19.530Z,35.28
2018-07-17T14:30:49.757Z,35.29
2018-07-17T14:33:19.059Z,33.58
2018-07-17T14:35:48.558Z,33.45
2018-07-17T14:38:18.890Z,33.16
2018-07-17T14:40:48.270Z,34.18
2018-07-17T14:43:17.734Z,34.83
2018-07-17T14:45:47.313Z,34.86
2018-07-17T14:48:16.720Z,34.26
2018-07-17T14:50:46.252Z,34.47
2018-07-17T14:53:15.604Z,34.65
2018-07-17T14:55:45.451Z,34.86
2018-07-17T14:58:15.022Z,34.10
2018-07-17T15:00:44.580Z,32.95
2018-07-17T15:03:14.190Z,32.24
2018-07-17T15:05:43.742Z,31.75
2018-07-17T15:08:13.417Z,32.29
2018-07-17T15:10:43.258Z,33.62
2018-07-17T15:13:13.080Z,34.83
2018-07-17T15:15:42.710Z,35.16
2018-07-17T15:18:12.340Z,34.60
2018-07-17T15:20:42.098Z,33.20
2018-07-17T15:23:11.817Z,32.60
2018-07-17T15:25:41.780Z,32.62
2018-07-17T15:28:11.506Z,32.17
2018-07-17T15:30:41.197Z,31.44
2018-07-17T15:33:12.105Z,32.36
2018-07-17T15:35:42.163Z,32.95
2018-07-17T15:38:12.082Z,32.88
2018-07-17T15:40:42.243Z,31.51
2018-07-17T15:43:11.894Z,31.34
2018-07-17T15:45:41.387Z,31.20
2018-07-17T15:48:10.945Z,31.59
2018-07-17T15:50:40.506Z,31.85
2018-07-17T15:53:10.387Z,32.38
2018-07-17T15:55:40.231Z,33.60
2018-07-17T15:58:10.377Z,34.34
2018-07-17T16:00:40.028Z,34.15
2018-07-17T16:03:10.368Z,34.73
2018-07-17T16:05:39.771Z,34.76
2018-07-17T16:08:09.674Z,35.45
2018-07-17T16:10:39.425Z,34.93
2018-07-17T16:13:09.455Z,33.95
2018-07-17T16:15:39.267Z,33.77
2018-07-17T16:18:09.740Z,33.20
2018-07-17T16:20:39.658Z,33.17
2018-07-17T16:23:09.707Z,34.14
2018-07-17T16:25:40.141Z,34.46
2018-07-17T16:28:10.017Z,34.35
2018-07-17T16:30:39.942Z,34.51
2018-07-17T16:33:10.094Z,35.04
2018-07-17T16:35:39.678Z,35.61
2018-07-17T16:38:09.561Z,34.92
2018-07-17T16:40:39.642Z,36.14
2018-07-17T16:43:09.860Z,36.24
2018-07-17T16:47:04.872Z,35.94
2018-07-17T16:49:37.511Z,36.43
2018-07-17T16:52:08.921Z,36.91
2018-07-17T16:54:38.985Z,37.26
2018-07-17T16:57:09.098Z,36.97
2018-07-17T16:59:39.576Z,37.08
2018-07-17T17:02:09.399Z,35.98
2018-07-17T17:04:39.719Z,35.37
2018-07-17T17:07:10.564Z,35.85
2018-07-17T17:09:41.884Z,34.18
2018-07-17T17:12:12.251Z,33.72
2018-07-17T17:14:41.838Z,32.57
2018-07-17T17:17:11.739Z,31.97
2018-07-17T17:19:41.450Z,31.70
2018-07-17T17:22:11.162Z,30.91
2018-07-17T17:24:40.955Z,30.35
2018-07-17T17:27:11.741Z,29.85
2018-07-17T17:29:41.319Z,29.73
2018-07-17T17:32:11.259Z,29.74
2018-07-17T17:34:41.479Z,29.04
2018-07-17T17:37:11.936Z,29.12
2018-07-17T17:39:44.617Z,29.06
2018-07-17T17:42:14.047Z,29.04
2018-07-17T17:44:44.031Z,28.83
2018-07-17T17:47:13.906Z,28.81
2018-07-17T17:49:43.607Z,28.82
2018-07-17T17:52:13.208Z,28.82
2018-07-17T17:54:44.549Z,28.97
2018-07-17T17:57:14.436Z,29.17
2018-07-17T17:59:44.180Z,29.59
2018-07-17T18:02:14.914Z,30.15
2018-07-17T18:04:44.783Z,30.71
2018-07-17T18:07:14.462Z,31.20
2018-07-17T18:09:45.003Z,30.80
2018-07-17T18:12:14.803Z,31.00
2018-07-17T18:14:45.580Z,31.26
2018-07-17T18:17:16.680Z,31.15
2018-07-17T18:19:46.453Z,30.94
2018-07-17T18:22:16.362Z,31.03
2018-07-17T18:24:47.882Z,31.50
2018-07-17T18:27:17.315Z,31.76
2018-07-17T18:29:47.038Z,31.58
2018-07-17T18:32:16.720Z,31.50
2018-07-17T18:34:46.023Z,31.44
2018-07-17T18:37:15.760Z,31.21
2018-07-17T18:39:46.949Z,30.97
2018-07-17T18:42:16.231Z,31.29
2018-07-17T18:44:45.738Z,31.31
2018-07-17T18:47:14.992Z,31.13
2018-07-17T18:49:44.361Z,31.01
2018-07-17T18:52:13.878Z,30.95
2018-07-17T18:54:43.911Z,30.69
2018-07-17T18:57:13.735Z,30.41
2018-07-17T18:59:43.578Z,30.10
2018-07-17T19:02:13.464Z,30.07
2018-07-17T19:04:43.170Z,29.74
2018-07-17T19:07:13.421Z,29.50
2018-07-17T19:09:43.431Z,29.27
2018-07-17T19:12:13.122Z,29.17
2018-07-17T19:14:42.889Z,28.81
2018-07-17T19:17:13.426Z,28.77
2018-07-17T19:19:43.124Z,28.54
2018-07-17T19:22:12.635Z,28.18
2018-07-17T19:24:43.086Z,28.13
2018-07-17T19:27:12.774Z,27.91
2018-07-17T19:29:42.961Z,27.88
2018-07-17T19:32:16.303Z,27.69
2018-07-17T19:34:45.724Z,27.71
2018-07-17T19:37:15.739Z,27.57
2018-07-17T19:39:45.419Z,27.64
2018-07-17T19:42:14.633Z,27.64
2018-07-17T19:44:44.480Z,27.49
2018-07-17T19:47:14.729Z,27.32
2018-07-17T19:49:45.240Z,27.11
2018-07-17T19:52:16.850Z,26.93
2018-07-17T19:54:46.271Z,26.76
2018-07-17T19:57:16.119Z,26.44
2018-07-17T19:59:45.551Z,26.23
2018-07-17T20:02:14.869Z,26.07
2018-07-17T20:04:44.868Z,25.83
2018-07-17T20:07:16.122Z,25.60
2018-07-17T20:09:46.937Z,25.43
2018-07-17T20:12:16.345Z,25.28
2018-07-17T20:14:45.755Z,25.09
2018-07-17T20:17:15.211Z,24.94
2018-07-17T20:19:45.846Z,24.71
2018-07-17T20:22:15.452Z,24.51
2018-07-17T20:24:45.841Z,24.30
2018-07-17T20:27:15.714Z,24.17
2018-07-17T20:29:45.434Z,24.02
2018-07-17T20:32:15.433Z,23.89
2018-07-17T20:34:45.802Z,23.86
2018-07-17T20:37:15.550Z,23.74
2018-07-17T20:39:45.069Z,23.61
2018-07-17T20:42:16.128Z,23.44
2018-07-17T20:44:45.874Z,23.34
2018-07-17T20:47:15.986Z,23.29
2018-07-17T20:49:45.494Z,23.21
2018-07-17T20:52:15.425Z,23.07
2018-07-17T20:54:45.115Z,23.00
2018-07-17T20:57:15.444Z,22.92
2018-07-17T20:59:45.224Z,22.92
2018-07-17T21:02:14.819Z,22.94
2018-07-17T21:04:44.845Z,22.86
2018-07-17T21:07:14.256Z,22.82
2018-07-17T21:09:44.154Z,22.80
2018-07-17T21:12:14.483Z,22.72
2018-07-17T21:14:44.156Z,22.70
2018-07-17T21:17:13.913Z,22.72
2018-07-17T21:19:43.821Z,22.69
2018-07-17T21:22:13.712Z,22.62
2018-07-17T21:24:43.366Z,22.47
2018-07-17T21:27:13.433Z,22.39
2018-07-17T21:29:43.759Z,22.25
2018-07-17T21:32:13.478Z,22.24
2018-07-17T21:34:43.394Z,22.16
2018-07-17T21:37:12.921Z,22.14
2018-07-17T21:39:42.857Z,22.07
2018-07-17T21:42:12.584Z,21.99
2018-07-17T21:44:42.200Z,21.95
2018-07-17T21:47:12.659Z,21.82
2018-07-17T21:49:42.298Z,21.70
2018-07-17T21:52:12.336Z,21.66
2018-07-17T21:54:42.476Z,21.58
2018-07-17T21:57:12.851Z,21.54
2018-07-17T21:59:42.802Z,21.47
2018-07-17T22:02:12.405Z,21.41
2018-07-17T22:04:42.611Z,21.36
2018-07-17T22:07:12.562Z,21.35
2018-07-17T22:09:42.047Z,21.28
2018-07-17T22:12:11.988Z,21.25
2018-07-17T22:14:41.974Z,21.18
2018-07-17T22:17:13.177Z,21.17
2018-07-17T22:19:42.954Z,21.10
2018-07-17T22:22:12.319Z,21.01
2018-07-17T22:24:42.555Z,20.93
2018-07-17T22:27:13.466Z,20.87
2018-07-17T22:29:43.769Z,20.80
2018-07-17T22:32:13.482Z,20.80
2018-07-17T22:34:42.960Z,20.76
2018-07-17T22:37:12.898Z,20.72
2018-07-17T22:39:42.465Z,20.67
2018-07-17T22:42:11.972Z,20.59
2018-07-17T22:44:41.427Z,20.58
2018-07-17T22:47:10.943Z,20.56
2018-07-17T22:49:40.710Z,20.51
2018-07-17T22:52:10.670Z,20.42
2018-07-17T22:54:40.200Z,20.34
2018-07-17T22:57:09.817Z,20.26
2018-07-17T22:59:39.556Z,20.25
2018-07-17T23:02:09.852Z,20.23
2018-07-17T23:04:39.429Z,20.20
2018-07-17T23:07:09.706Z,20.19
2018-07-17T23:09:39.367Z,20.15
2018-07-17T23:12:08.907Z,20.16
2018-07-17T23:14:38.676Z,20.12
2018-07-17T23:17:08.571Z,20.06
2018-07-17T23:19:39.355Z,19.99
2018-07-17T23:22:09.117Z,19.91
2018-07-17T23:24:38.957Z,19.82
2018-07-17T23:27:10.093Z,19.76
2018-07-17T23:29:39.864Z,19.76
2018-07-17T23:32:09.895Z,19.72
2018-07-17T23:34:39.987Z,19.69
2018-07-17T23:37:10.337Z,19.65
2018-07-17T23:39:40.832Z,19.59
2018-07-17T23:42:11.525Z,19.59
2018-07-17T23:44:41.277Z,19.53
2018-07-17T23:47:11.584Z,19.49
2018-07-17T23:49:44.380Z,19.41
2018-07-17T23:52:13.677Z,19.37
2018-07-17T23:54:43.404Z,19.29
2018-07-17T23:57:12.923Z,19.24
2018-07-17T23:59:42.234Z,19.22
